sensor_id;sensor_type;location;lat;lon;timestamp;P1;durP1;ratioP1;P2;durP2;ratioP2
57828;SDS011;43657;52.698;6.314;2023-03-23T00:31:42;9.55;;;8.38;;
57828;SDS011;43657;52.698;6.314;2023-03-23T00:34:12;9.38;;;8.30;;
57828;SDS011;43657;52.698;6.314;2023-03-23T00:36:50;11.32;;;8.20;;
57828;SDS011;43657;52.698;6.314;2023-03-23T00:39:18;12.30;;;7.88;;
57828;SDS011;43657;52.698;6.314;2023-03-23T00:41:44;10.80;;;7.20;;
57828;SDS011;43657;52.698;6.314;2023-03-23T00:44:11;10.80;;;7.28;;
57828;SDS011;43657;52.698;6.314;2023-03-23T00:46:42;8.23;;;6.65;;
57828;SDS011;43657;52.698;6.314;2023-03-23T00:49:13;8.80;;;7.43;;
57828;SDS011;43657;52.698;6.314;2023-03-23T00:51:42;11.05;;;7.05;;
57828;SDS011;43657;52.698;6.314;2023-03-23T00:54:08;9.90;;;6.50;;
57828;SDS011;43657;52.698;6.314;2023-03-23T00:56:34;8.20;;;5.93;;
57828;SDS011;43657;52.698;6.314;2023-03-23T00:59:00;6.18;;;5.50;;
57828;SDS011;43657;52.698;6.314;2023-03-23T01:01:26;7.70;;;5.53;;
57828;SDS011;43657;52.698;6.314;2023-03-23T01:03:51;7.97;;;6.05;;
57828;SDS011;43657;52.698;6.314;2023-03-23T01:06:25;8.45;;;5.25;;
57828;SDS011;43657;52.698;6.314;2023-03-23T01:09:03;8.10;;;5.93;;
57828;SDS011;43657;52.698;6.314;2023-03-23T01:11:30;7.88;;;5.95;;
57828;SDS011;43657;52.698;6.314;2023-03-23T01:13:57;7.13;;;5.70;;
57828;SDS011;43657;52.698;6.314;2023-03-23T01:16:22;10.25;;;5.80;;
57828;SDS011;43657;52.698;6.314;2023-03-23T01:18:48;8.25;;;5.50;;
57828;SDS011;43657;52.698;6.314;2023-03-23T01:21:15;8.23;;;5.40;;
57828;SDS011;43657;52.698;6.314;2023-03-23T01:23:43;5.70;;;4.40;;
57828;SDS011;43657;52.698;6.314;2023-03-23T01:26:13;6.75;;;5.32;;
57828;SDS011;43657;52.698;6.314;2023-03-23T01:28:44;7.13;;;5.25;;
57828;SDS011;43657;52.698;6.314;2023-03-23T01:31:12;7.75;;;5.43;;
57828;SDS011;43657;52.698;6.314;2023-03-23T01:33:40;8.95;;;5.55;;
57828;SDS011;43657;52.698;6.314;2023-03-23T01:36:07;6.05;;;5.03;;
57828;SDS011;43657;52.698;6.314;2023-03-23T01:38:37;9.80;;;5.88;;
57828;SDS011;43657;52.698;6.314;2023-03-23T01:41:03;6.47;;;5.05;;
57828;SDS011;43657;52.698;6.314;2023-03-23T01:43:29;6.13;;;5.53;;
57828;SDS011;43657;52.698;6.314;2023-03-23T01:45:55;7.30;;;5.40;;
57828;SDS011;43657;52.698;6.314;2023-03-23T01:48:22;8.20;;;5.93;;
57828;SDS011;43657;52.698;6.314;2023-03-23T01:50:57;8.15;;;5.68;;
57828;SDS011;43657;52.698;6.314;2023-03-23T01:53:29;7.07;;;5.20;;
57828;SDS011;43657;52.698;6.314;2023-03-23T01:55:58;6.45;;;4.60;;
57828;SDS011;43657;52.698;6.314;2023-03-23T01:58:26;9.02;;;5.10;;
57828;SDS011;43657;52.698;6.314;2023-03-23T02:00:55;6.57;;;5.18;;
57828;SDS011;43657;52.698;6.314;2023-03-23T02:03:25;6.78;;;4.88;;
57828;SDS011;43657;52.698;6.314;2023-03-23T02:05:53;7.00;;;4.72;;
57828;SDS011;43657;52.698;6.314;2023-03-23T02:08:23;7.40;;;4.40;;
57828;SDS011;43657;52.698;6.314;2023-03-23T02:10:51;7.25;;;4.72;;
57828;SDS011;43657;52.698;6.314;2023-03-23T02:13:17;6.60;;;4.30;;
57828;SDS011;43657;52.698;6.314;2023-03-23T02:15:54;7.10;;;4.28;;
57828;SDS011;43657;52.698;6.314;2023-03-23T02:24:16;6.60;;;4.38;;
57828;SDS011;43657;52.698;6.314;2023-03-23T02:26:54;5.38;;;4.28;;
57828;SDS011;43657;52.698;6.314;2023-03-23T02:29:37;5.95;;;4.45;;
57828;SDS011;43657;52.698;6.314;2023-03-23T02:35:36;8.63;;;4.60;;
57828;SDS011;43657;52.698;6.314;2023-03-23T02:38:14;6.28;;;3.83;;
57828;SDS011;43657;52.698;6.314;2023-03-23T02:40:44;7.78;;;4.50;;
57828;SDS011;43657;52.698;6.314;2023-03-23T02:43:16;7.57;;;4.10;;
57828;SDS011;43657;52.698;6.314;2023-03-23T02:45:45;6.78;;;4.57;;
57828;SDS011;43657;52.698;6.314;2023-03-23T02:48:11;6.50;;;4.15;;
57828;SDS011;43657;52.698;6.314;2023-03-23T02:50:40;7.60;;;4.20;;
57828;SDS011;43657;52.698;6.314;2023-03-23T02:53:10;6.43;;;4.30;;
57828;SDS011;43657;52.698;6.314;2023-03-23T02:55:41;6.68;;;4.43;;
57828;SDS011;43657;52.698;6.314;2023-03-23T02:58:09;5.70;;;4.20;;
57828;SDS011;43657;52.698;6.314;2023-03-23T03:00:35;5.68;;;4.25;;
57828;SDS011;43657;52.698;6.314;2023-03-23T03:03:03;7.15;;;4.50;;
57828;SDS011;43657;52.698;6.314;2023-03-23T03:08:30;5.85;;;4.40;;
57828;SDS011;43657;52.698;6.314;2023-03-23T03:11:15;6.88;;;4.45;;
57828;SDS011;43657;52.698;6.314;2023-03-23T03:16:38;5.70;;;4.30;;
57828;SDS011;43657;52.698;6.314;2023-03-23T03:19:18;7.13;;;4.65;;
57828;SDS011;43657;52.698;6.314;2023-03-23T03:21:50;7.45;;;4.93;;
57828;SDS011;43657;52.698;6.314;2023-03-23T03:24:19;6.38;;;4.40;;
57828;SDS011;43657;52.698;6.314;2023-03-23T03:26:47;6.47;;;4.40;;
57828;SDS011;43657;52.698;6.314;2023-03-23T03:29:17;5.90;;;4.53;;
57828;SDS011;43657;52.698;6.314;2023-03-23T03:31:46;5.75;;;4.88;;
57828;SDS011;43657;52.698;6.314;2023-03-23T03:34:14;7.05;;;5.53;;
57828;SDS011;43657;52.698;6.314;2023-03-23T03:36:42;5.00;;;4.50;;
57828;SDS011;43657;52.698;6.314;2023-03-23T03:39:10;6.00;;;4.72;;
57828;SDS011;43657;52.698;6.314;2023-03-23T03:41:39;7.47;;;4.88;;
57828;SDS011;43657;52.698;6.314;2023-03-23T03:44:06;5.72;;;4.78;;
57828;SDS011;43657;52.698;6.314;2023-03-23T03:46:33;7.38;;;5.28;;
57828;SDS011;43657;52.698;6.314;2023-03-23T03:49:00;6.57;;;4.72;;
57828;SDS011;43657;52.698;6.314;2023-03-23T03:51:28;6.70;;;5.32;;
57828;SDS011;43657;52.698;6.314;2023-03-23T03:53:55;7.13;;;5.32;;
57828;SDS011;43657;52.698;6.314;2023-03-23T03:56:21;7.10;;;5.15;;
57828;SDS011;43657;52.698;6.314;2023-03-23T03:58:47;7.70;;;5.13;;
57828;SDS011;43657;52.698;6.314;2023-03-23T04:01:14;6.05;;;5.10;;
57828;SDS011;43657;52.698;6.314;2023-03-23T04:03:40;7.30;;;5.72;;
57828;SDS011;43657;52.698;6.314;2023-03-23T04:06:06;6.50;;;5.25;;
57828;SDS011;43657;52.698;6.314;2023-03-23T04:08:37;8.30;;;5.45;;
57828;SDS011;43657;52.698;6.314;2023-03-23T04:11:04;6.20;;;5.05;;
57828;SDS011;43657;52.698;6.314;2023-03-23T04:13:30;8.15;;;5.07;;
57828;SDS011;43657;52.698;6.314;2023-03-23T04:15:56;6.95;;;4.90;;
57828;SDS011;43657;52.698;6.314;2023-03-23T04:18:22;6.78;;;5.40;;
57828;SDS011;43657;52.698;6.314;2023-03-23T04:20:49;5.78;;;4.90;;
57828;SDS011;43657;52.698;6.314;2023-03-23T04:23:15;7.00;;;5.70;;
57828;SDS011;43657;52.698;6.314;2023-03-23T04:25:48;7.63;;;5.82;;
57828;SDS011;43657;52.698;6.314;2023-03-23T04:28:15;8.10;;;5.45;;
57828;SDS011;43657;52.698;6.314;2023-03-23T04:30:43;7.30;;;5.38;;
57828;SDS011;43657;52.698;6.314;2023-03-23T04:33:10;6.20;;;5.30;;
57828;SDS011;43657;52.698;6.314;2023-03-23T04:35:39;8.65;;;5.65;;
57828;SDS011;43657;52.698;6.314;2023-03-23T04:38:06;8.43;;;5.95;;
57828;SDS011;43657;52.698;6.314;2023-03-23T04:40:32;8.05;;;5.65;;
57828;SDS011;43657;52.698;6.314;2023-03-23T04:43:01;8.95;;;5.85;;
57828;SDS011;43657;52.698;6.314;2023-03-23T04:45:31;10.30;;;5.97;;
57828;SDS011;43657;52.698;6.314;2023-03-23T04:47:58;7.85;;;6.13;;
57828;SDS011;43657;52.698;6.314;2023-03-23T04:50:25;10.88;;;6.75;;
57828;SDS011;43657;52.698;6.314;2023-03-23T04:52:56;9.63;;;6.07;;
57828;SDS011;43657;52.698;6.314;2023-03-23T04:55:23;14.60;;;7.25;;
57828;SDS011;43657;52.698;6.314;2023-03-23T04:57:50;13.02;;;7.55;;
57828;SDS011;43657;52.698;6.314;2023-03-23T05:00:15;9.00;;;6.88;;
57828;SDS011;43657;52.698;6.314;2023-03-23T05:02:42;10.32;;;7.15;;
57828;SDS011;43657;52.698;6.314;2023-03-23T05:05:10;9.20;;;6.80;;
57828;SDS011;43657;52.698;6.314;2023-03-23T05:07:37;9.10;;;6.97;;
57828;SDS011;43657;52.698;6.314;2023-03-23T05:10:04;11.93;;;7.13;;
57828;SDS011;43657;52.698;6.314;2023-03-23T05:12:30;9.63;;;5.93;;
57828;SDS011;43657;52.698;6.314;2023-03-23T05:14:56;9.98;;;6.50;;
57828;SDS011;43657;52.698;6.314;2023-03-23T05:17:22;9.20;;;6.00;;
57828;SDS011;43657;52.698;6.314;2023-03-23T05:19:52;12.98;;;7.13;;
57828;SDS011;43657;52.698;6.314;2023-03-23T05:22:17;8.57;;;6.25;;
57828;SDS011;43657;52.698;6.314;2023-03-23T05:24:45;10.13;;;6.95;;
57828;SDS011;43657;52.698;6.314;2023-03-23T05:27:12;7.78;;;6.07;;
57828;SDS011;43657;52.698;6.314;2023-03-23T05:29:39;9.20;;;5.85;;
57828;SDS011;43657;52.698;6.314;2023-03-23T05:32:06;7.13;;;4.78;;
57828;SDS011;43657;52.698;6.314;2023-03-23T05:34:33;7.60;;;5.03;;
57828;SDS011;43657;52.698;6.314;2023-03-23T05:37:00;6.65;;;4.75;;
57828;SDS011;43657;52.698;6.314;2023-03-23T05:39:26;6.70;;;4.32;;
57828;SDS011;43657;52.698;6.314;2023-03-23T05:41:53;8.50;;;5.38;;
57828;SDS011;43657;52.698;6.314;2023-03-23T05:44:18;7.97;;;3.72;;
57828;SDS011;43657;52.698;6.314;2023-03-23T05:46:44;6.70;;;3.15;;
57828;SDS011;43657;52.698;6.314;2023-03-23T05:49:10;8.38;;;3.50;;
57828;SDS011;43657;52.698;6.314;2023-03-23T05:51:36;6.22;;;2.88;;
57828;SDS011;43657;52.698;6.314;2023-03-23T05:54:02;6.70;;;2.88;;
57828;SDS011;43657;52.698;6.314;2023-03-23T05:56:28;6.57;;;2.75;;
57828;SDS011;43657;52.698;6.314;2023-03-23T05:58:55;4.85;;;2.60;;
57828;SDS011;43657;52.698;6.314;2023-03-23T06:01:21;5.05;;;3.17;;
57828;SDS011;43657;52.698;6.314;2023-03-23T06:03:48;5.10;;;3.38;;
57828;SDS011;43657;52.698;6.314;2023-03-23T06:06:16;8.13;;;3.42;;
57828;SDS011;43657;52.698;6.314;2023-03-23T06:08:43;9.55;;;3.90;;
57828;SDS011;43657;52.698;6.314;2023-03-23T06:11:09;7.35;;;3.83;;
57828;SDS011;43657;52.698;6.314;2023-03-23T06:13:35;7.85;;;3.58;;
57828;SDS011;43657;52.698;6.314;2023-03-23T06:16:01;8.95;;;3.78;;
57828;SDS011;43657;52.698;6.314;2023-03-23T06:18:29;8.68;;;4.68;;
57828;SDS011;43657;52.698;6.314;2023-03-23T06:20:58;10.25;;;4.28;;
57828;SDS011;43657;52.698;6.314;2023-03-23T06:23:25;9.10;;;4.00;;
57828;SDS011;43657;52.698;6.314;2023-03-23T06:25:53;9.50;;;4.20;;
57828;SDS011;43657;52.698;6.314;2023-03-23T06:28:20;9.95;;;4.18;;
57828;SDS011;43657;52.698;6.314;2023-03-23T06:30:45;8.45;;;4.05;;
57828;SDS011;43657;52.698;6.314;2023-03-23T06:33:11;13.00;;;5.10;;
57828;SDS011;43657;52.698;6.314;2023-03-23T06:35:37;10.02;;;4.50;;
57828;SDS011;43657;52.698;6.314;2023-03-23T06:38:02;13.55;;;4.78;;
57828;SDS011;43657;52.698;6.314;2023-03-23T06:40:28;13.90;;;5.03;;
57828;SDS011;43657;52.698;6.314;2023-03-23T06:42:54;11.98;;;4.65;;
57828;SDS011;43657;52.698;6.314;2023-03-23T07:08:36;13.73;;;5.03;;
57828;SDS011;43657;52.698;6.314;2023-03-23T07:11:16;13.90;;;4.82;;
57828;SDS011;43657;52.698;6.314;2023-03-23T07:17:47;14.15;;;5.05;;
57828;SDS011;43657;52.698;6.314;2023-03-23T07:20:36;11.80;;;4.47;;
57828;SDS011;43657;52.698;6.314;2023-03-23T07:23:02;9.93;;;4.53;;
57828;SDS011;43657;52.698;6.314;2023-03-23T07:25:30;12.75;;;4.30;;
57828;SDS011;43657;52.698;6.314;2023-03-23T07:27:57;11.52;;;3.88;;
57828;SDS011;43657;52.698;6.314;2023-03-23T07:30:27;10.70;;;4.30;;
57828;SDS011;43657;52.698;6.314;2023-03-23T07:32:54;9.45;;;3.85;;
57828;SDS011;43657;52.698;6.314;2023-03-23T07:35:20;9.88;;;3.67;;
57828;SDS011;43657;52.698;6.314;2023-03-23T07:37:46;9.60;;;3.53;;
57828;SDS011;43657;52.698;6.314;2023-03-23T07:40:14;11.13;;;3.92;;
57828;SDS011;43657;52.698;6.314;2023-03-23T07:42:44;11.73;;;3.67;;
57828;SDS011;43657;52.698;6.314;2023-03-23T07:45:11;11.40;;;4.15;;
57828;SDS011;43657;52.698;6.314;2023-03-23T07:47:38;13.45;;;4.15;;
57828;SDS011;43657;52.698;6.314;2023-03-23T07:50:05;12.93;;;4.40;;
57828;SDS011;43657;52.698;6.314;2023-03-23T07:52:32;14.90;;;4.93;;
57828;SDS011;43657;52.698;6.314;2023-03-23T07:54:58;14.48;;;4.70;;
57828;SDS011;43657;52.698;6.314;2023-03-23T07:57:26;12.02;;;4.65;;
57828;SDS011;43657;52.698;6.314;2023-03-23T07:59:52;11.25;;;4.05;;
57828;SDS011;43657;52.698;6.314;2023-03-23T08:02:17;10.77;;;4.35;;
57828;SDS011;43657;52.698;6.314;2023-03-23T08:04:43;14.52;;;5.03;;
57828;SDS011;43657;52.698;6.314;2023-03-23T08:07:09;15.50;;;4.28;;
57828;SDS011;43657;52.698;6.314;2023-03-23T08:09:37;13.15;;;5.07;;
57828;SDS011;43657;52.698;6.314;2023-03-23T08:12:03;15.70;;;5.03;;
57828;SDS011;43657;52.698;6.314;2023-03-23T08:14:29;16.02;;;5.00;;
57828;SDS011;43657;52.698;6.314;2023-03-23T08:16:55;15.52;;;5.13;;
57828;SDS011;43657;52.698;6.314;2023-03-23T08:19:22;12.43;;;5.28;;
57828;SDS011;43657;52.698;6.314;2023-03-23T08:21:48;16.05;;;5.38;;
57828;SDS011;43657;52.698;6.314;2023-03-23T08:24:14;11.60;;;4.63;;
57828;SDS011;43657;52.698;6.314;2023-03-23T08:26:40;11.73;;;4.85;;
57828;SDS011;43657;52.698;6.314;2023-03-23T08:29:06;11.38;;;4.90;;
57828;SDS011;43657;52.698;6.314;2023-03-23T08:31:33;13.77;;;5.43;;
57828;SDS011;43657;52.698;6.314;2023-03-23T08:34:00;12.35;;;5.22;;
57828;SDS011;43657;52.698;6.314;2023-03-23T08:36:27;10.68;;;4.97;;
57828;SDS011;43657;52.698;6.314;2023-03-23T08:38:53;11.48;;;4.82;;
57828;SDS011;43657;52.698;6.314;2023-03-23T08:41:19;14.85;;;5.90;;
57828;SDS011;43657;52.698;6.314;2023-03-23T08:43:45;13.55;;;5.72;;
57828;SDS011;43657;52.698;6.314;2023-03-23T08:46:11;17.05;;;5.32;;
57828;SDS011;43657;52.698;6.314;2023-03-23T08:48:37;13.18;;;4.93;;
57828;SDS011;43657;52.698;6.314;2023-03-23T08:51:04;13.90;;;4.85;;
57828;SDS011;43657;52.698;6.314;2023-03-23T08:53:30;11.25;;;5.53;;
57828;SDS011;43657;52.698;6.314;2023-03-23T08:56:02;12.88;;;5.18;;
57828;SDS011;43657;52.698;6.314;2023-03-23T08:58:29;9.88;;;4.80;;
57828;SDS011;43657;52.698;6.314;2023-03-23T09:00:55;12.75;;;5.13;;
57828;SDS011;43657;52.698;6.314;2023-03-23T09:03:20;13.27;;;5.45;;
57828;SDS011;43657;52.698;6.314;2023-03-23T09:05:46;13.43;;;5.25;;
57828;SDS011;43657;52.698;6.314;2023-03-23T09:08:14;10.77;;;4.65;;
57828;SDS011;43657;52.698;6.314;2023-03-23T09:10:40;15.18;;;5.28;;
57828;SDS011;43657;52.698;6.314;2023-03-23T09:13:06;10.65;;;5.00;;
57828;SDS011;43657;52.698;6.314;2023-03-23T09:15:31;10.38;;;4.72;;
57828;SDS011;43657;52.698;6.314;2023-03-23T09:17:57;15.45;;;5.40;;
57828;SDS011;43657;52.698;6.314;2023-03-23T09:20:24;12.10;;;5.28;;
57828;SDS011;43657;52.698;6.314;2023-03-23T09:22:52;16.30;;;6.35;;
57828;SDS011;43657;52.698;6.314;2023-03-23T09:25:22;12.73;;;6.43;;
57828;SDS011;43657;52.698;6.314;2023-03-23T09:27:57;14.15;;;5.60;;
57828;SDS011;43657;52.698;6.314;2023-03-23T09:30:24;11.95;;;5.40;;
57828;SDS011;43657;52.698;6.314;2023-03-23T09:32:55;10.65;;;4.05;;
57828;SDS011;43657;52.698;6.314;2023-03-23T09:35:22;13.60;;;3.90;;
57828;SDS011;43657;52.698;6.314;2023-03-23T09:37:49;10.13;;;3.47;;
57828;SDS011;43657;52.698;6.314;2023-03-23T09:40:17;9.68;;;3.50;;
57828;SDS011;43657;52.698;6.314;2023-03-23T09:45:34;12.68;;;3.97;;
57828;SDS011;43657;52.698;6.314;2023-03-23T09:50:57;6.72;;;3.05;;
57828;SDS011;43657;52.698;6.314;2023-03-23T09:53:39;10.70;;;3.42;;
57828;SDS011;43657;52.698;6.314;2023-03-23T09:56:11;5.78;;;2.40;;
57828;SDS011;43657;52.698;6.314;2023-03-23T09:58:46;8.02;;;2.50;;
57828;SDS011;43657;52.698;6.314;2023-03-23T10:03:43;6.10;;;2.80;;
57828;SDS011;43657;52.698;6.314;2023-03-23T10:06:11;7.60;;;2.67;;
57828;SDS011;43657;52.698;6.314;2023-03-23T10:08:43;8.35;;;2.65;;
57828;SDS011;43657;52.698;6.314;2023-03-23T10:16:40;8.40;;;3.17;;
57828;SDS011;43657;52.698;6.314;2023-03-23T10:19:23;9.20;;;3.17;;
57828;SDS011;43657;52.698;6.314;2023-03-23T10:22:14;8.45;;;2.90;;
57828;SDS011;43657;52.698;6.314;2023-03-23T10:24:51;8.68;;;3.10;;
57828;SDS011;43657;52.698;6.314;2023-03-23T10:27:42;9.80;;;3.00;;
57828;SDS011;43657;52.698;6.314;2023-03-23T10:30:38;10.23;;;3.28;;
57828;SDS011;43657;52.698;6.314;2023-03-23T10:35:36;7.53;;;2.80;;
57828;SDS011;43657;52.698;6.314;2023-03-23T10:38:19;8.55;;;3.10;;
57828;SDS011;43657;52.698;6.314;2023-03-23T10:40:56;8.45;;;2.47;;
57828;SDS011;43657;52.698;6.314;2023-03-23T10:43:36;8.10;;;2.42;;
57828;SDS011;43657;52.698;6.314;2023-03-23T10:46:05;7.97;;;2.42;;
57828;SDS011;43657;52.698;6.314;2023-03-23T10:48:47;6.45;;;2.13;;
57828;SDS011;43657;52.698;6.314;2023-03-23T10:51:16;8.18;;;2.60;;
57828;SDS011;43657;52.698;6.314;2023-03-23T10:53:49;8.50;;;2.30;;
57828;SDS011;43657;52.698;6.314;2023-03-23T10:56:24;9.90;;;2.83;;
57828;SDS011;43657;52.698;6.314;2023-03-23T10:58:59;8.48;;;2.63;;
57828;SDS011;43657;52.698;6.314;2023-03-23T11:01:32;9.50;;;2.25;;
57828;SDS011;43657;52.698;6.314;2023-03-23T11:04:00;8.30;;;2.65;;
57828;SDS011;43657;52.698;6.314;2023-03-23T11:06:30;6.65;;;2.60;;
57828;SDS011;43657;52.698;6.314;2023-03-23T11:09:01;8.05;;;1.98;;
57828;SDS011;43657;52.698;6.314;2023-03-23T11:11:37;6.57;;;2.53;;
57828;SDS011;43657;52.698;6.314;2023-03-23T11:14:18;9.15;;;2.45;;
57828;SDS011;43657;52.698;6.314;2023-03-23T11:16:54;9.02;;;2.70;;
57828;SDS011;43657;52.698;6.314;2023-03-23T11:19:35;9.65;;;2.75;;
57828;SDS011;43657;52.698;6.314;2023-03-23T11:24:34;9.52;;;3.08;;
57828;SDS011;43657;52.698;6.314;2023-03-23T11:27:08;7.40;;;2.58;;
57828;SDS011;43657;52.698;6.314;2023-03-23T11:29:35;6.85;;;2.00;;
57828;SDS011;43657;52.698;6.314;2023-03-23T11:32:14;5.65;;;2.00;;
57828;SDS011;43657;52.698;6.314;2023-03-23T11:34:41;7.88;;;2.22;;
57828;SDS011;43657;52.698;6.314;2023-03-23T11:37:10;11.45;;;2.42;;
57828;SDS011;43657;52.698;6.314;2023-03-23T11:39:57;9.80;;;2.60;;
57828;SDS011;43657;52.698;6.314;2023-03-23T11:42:26;9.38;;;2.22;;
57828;SDS011;43657;52.698;6.314;2023-03-23T11:48:06;8.05;;;2.65;;
57828;SDS011;43657;52.698;6.314;2023-03-23T11:50:35;10.73;;;2.50;;
57828;SDS011;43657;52.698;6.314;2023-03-23T11:53:15;9.73;;;3.05;;
57828;SDS011;43657;52.698;6.314;2023-03-23T11:58:21;9.75;;;2.55;;
57828;SDS011;43657;52.698;6.314;2023-03-23T12:00:57;9.38;;;2.80;;
57828;SDS011;43657;52.698;6.314;2023-03-23T12:03:37;9.70;;;2.13;;
57828;SDS011;43657;52.698;6.314;2023-03-23T12:06:33;9.00;;;2.05;;
57828;SDS011;43657;52.698;6.314;2023-03-23T12:09:15;8.80;;;2.15;;
57828;SDS011;43657;52.698;6.314;2023-03-23T12:12:12;6.85;;;2.42;;
57828;SDS011;43657;52.698;6.314;2023-03-23T12:15:30;11.27;;;2.40;;
57828;SDS011;43657;52.698;6.314;2023-03-23T12:20:16;6.82;;;1.90;;
57828;SDS011;43657;52.698;6.314;2023-03-23T12:28:19;9.52;;;2.58;;
57828;SDS011;43657;52.698;6.314;2023-03-23T12:42:09;10.95;;;2.60;;
57828;SDS011;43657;52.698;6.314;2023-03-23T12:45:00;9.55;;;2.90;;
57828;SDS011;43657;52.698;6.314;2023-03-23T12:47:48;10.25;;;2.40;;
57828;SDS011;43657;52.698;6.314;2023-03-23T12:50:33;7.10;;;1.90;;
57828;SDS011;43657;52.698;6.314;2023-03-23T12:53:14;7.43;;;1.88;;
57828;SDS011;43657;52.698;6.314;2023-03-23T12:55:47;8.50;;;2.03;;
57828;SDS011;43657;52.698;6.314;2023-03-23T12:58:21;7.45;;;1.85;;
57828;SDS011;43657;52.698;6.314;2023-03-23T13:00:59;6.32;;;2.15;;
57828;SDS011;43657;52.698;6.314;2023-03-23T13:09:46;9.27;;;1.88;;
57828;SDS011;43657;52.698;6.314;2023-03-23T13:11:49;6.15;;;1.55;;
57828;SDS011;43657;52.698;6.314;2023-03-23T13:14:20;8.32;;;1.65;;
57828;SDS011;43657;52.698;6.314;2023-03-23T13:22:39;7.20;;;2.30;;
57828;SDS011;43657;52.698;6.314;2023-03-23T13:28:01;7.10;;;1.83;;
57828;SDS011;43657;52.698;6.314;2023-03-23T13:30:27;6.97;;;1.58;;
57828;SDS011;43657;52.698;6.314;2023-03-23T13:33:06;6.63;;;2.20;;
57828;SDS011;43657;52.698;6.314;2023-03-23T13:35:38;7.95;;;2.60;;
57828;SDS011;43657;52.698;6.314;2023-03-23T13:38:25;7.40;;;1.80;;
57828;SDS011;43657;52.698;6.314;2023-03-23T13:40:55;9.60;;;2.40;;
57828;SDS011;43657;52.698;6.314;2023-03-23T13:43:32;7.47;;;2.25;;
57828;SDS011;43657;52.698;6.314;2023-03-23T13:46:10;9.65;;;2.58;;
57828;SDS011;43657;52.698;6.314;2023-03-23T14:01:52;3.88;;;1.60;;
57828;SDS011;43657;52.698;6.314;2023-03-23T14:04:38;5.90;;;1.98;;
57828;SDS011;43657;52.698;6.314;2023-03-23T14:07:10;6.18;;;1.67;;
57828;SDS011;43657;52.698;6.314;2023-03-23T14:09:38;7.97;;;2.50;;
57828;SDS011;43657;52.698;6.314;2023-03-23T14:12:14;8.38;;;2.38;;
57828;SDS011;43657;52.698;6.314;2023-03-23T14:15:11;10.55;;;2.70;;
57828;SDS011;43657;52.698;6.314;2023-03-23T14:17:33;7.88;;;2.45;;
57828;SDS011;43657;52.698;6.314;2023-03-23T14:20:05;11.27;;;3.45;;
57828;SDS011;43657;52.698;6.314;2023-03-23T14:22:33;11.00;;;2.85;;
57828;SDS011;43657;52.698;6.314;2023-03-23T14:25:22;7.68;;;2.40;;
57828;SDS011;43657;52.698;6.314;2023-03-23T14:27:47;7.72;;;2.53;;
57828;SDS011;43657;52.698;6.314;2023-03-23T14:30:17;9.48;;;3.88;;
57828;SDS011;43657;52.698;6.314;2023-03-23T14:32:45;7.53;;;2.92;;
57828;SDS011;43657;52.698;6.314;2023-03-23T14:35:25;8.07;;;2.75;;
57828;SDS011;43657;52.698;6.314;2023-03-23T14:37:54;8.90;;;2.80;;
57828;SDS011;43657;52.698;6.314;2023-03-23T14:40:20;9.13;;;2.90;;
57828;SDS011;43657;52.698;6.314;2023-03-23T14:42:46;8.73;;;3.20;;
57828;SDS011;43657;52.698;6.314;2023-03-23T14:45:14;7.53;;;2.95;;
57828;SDS011;43657;52.698;6.314;2023-03-23T14:47:51;10.88;;;3.30;;
57828;SDS011;43657;52.698;6.314;2023-03-23T14:52:51;10.13;;;3.30;;
57828;SDS011;43657;52.698;6.314;2023-03-23T14:55:18;10.73;;;2.85;;
57828;SDS011;43657;52.698;6.314;2023-03-23T14:57:49;7.70;;;2.75;;
57828;SDS011;43657;52.698;6.314;2023-03-23T15:02:52;11.75;;;2.33;;
57828;SDS011;43657;52.698;6.314;2023-03-23T15:05:21;8.75;;;2.88;;
57828;SDS011;43657;52.698;6.314;2023-03-23T15:07:56;10.00;;;2.63;;
57828;SDS011;43657;52.698;6.314;2023-03-23T15:10:28;9.30;;;2.85;;
57828;SDS011;43657;52.698;6.314;2023-03-23T15:12:54;9.73;;;2.85;;
57828;SDS011;43657;52.698;6.314;2023-03-23T15:15:33;9.18;;;2.80;;
57828;SDS011;43657;52.698;6.314;2023-03-23T15:18:00;7.47;;;2.70;;
57828;SDS011;43657;52.698;6.314;2023-03-23T15:20:32;9.63;;;2.67;;
57828;SDS011;43657;52.698;6.314;2023-03-23T15:23:15;6.78;;;2.50;;
57828;SDS011;43657;52.698;6.314;2023-03-23T15:25:50;5.60;;;2.20;;
57828;SDS011;43657;52.698;6.314;2023-03-23T15:28:18;7.28;;;2.40;;
57828;SDS011;43657;52.698;6.314;2023-03-23T15:30:50;8.13;;;2.50;;
57828;SDS011;43657;52.698;6.314;2023-03-23T15:33:18;6.28;;;2.47;;
57828;SDS011;43657;52.698;6.314;2023-03-23T15:35:51;9.10;;;2.72;;
57828;SDS011;43657;52.698;6.314;2023-03-23T15:38:29;6.00;;;2.90;;
57828;SDS011;43657;52.698;6.314;2023-03-23T15:41:00;10.63;;;2.63;;
57828;SDS011;43657;52.698;6.314;2023-03-23T15:43:30;7.63;;;2.50;;
57828;SDS011;43657;52.698;6.314;2023-03-23T15:45:58;7.55;;;3.38;;
57828;SDS011;43657;52.698;6.314;2023-03-23T15:48:48;9.15;;;2.88;;
57828;SDS011;43657;52.698;6.314;2023-03-23T15:51:23;10.45;;;3.22;;
57828;SDS011;43657;52.698;6.314;2023-03-23T15:53:51;9.60;;;3.33;;
57828;SDS011;43657;52.698;6.314;2023-03-23T15:56:18;9.45;;;3.40;;
57828;SDS011;43657;52.698;6.314;2023-03-23T15:58:44;8.65;;;2.70;;
57828;SDS011;43657;52.698;6.314;2023-03-23T16:01:13;7.18;;;2.53;;
57828;SDS011;43657;52.698;6.314;2023-03-23T16:03:50;10.93;;;3.40;;
57828;SDS011;43657;52.698;6.314;2023-03-23T16:06:18;8.70;;;3.10;;
57828;SDS011;43657;52.698;6.314;2023-03-23T16:08:45;10.30;;;2.92;;
57828;SDS011;43657;52.698;6.314;2023-03-23T16:11:12;11.38;;;3.10;;
57828;SDS011;43657;52.698;6.314;2023-03-23T16:13:39;8.40;;;2.83;;
57828;SDS011;43657;52.698;6.314;2023-03-23T16:16:05;8.77;;;3.10;;
57828;SDS011;43657;52.698;6.314;2023-03-23T16:18:36;8.45;;;3.25;;
57828;SDS011;43657;52.698;6.314;2023-03-23T16:21:02;8.93;;;2.88;;
57828;SDS011;43657;52.698;6.314;2023-03-23T16:23:27;8.13;;;3.10;;
57828;SDS011;43657;52.698;6.314;2023-03-23T16:25:53;11.15;;;3.45;;
57828;SDS011;43657;52.698;6.314;2023-03-23T16:28:18;8.13;;;2.72;;
57828;SDS011;43657;52.698;6.314;2023-03-23T16:30:45;9.90;;;2.90;;
57828;SDS011;43657;52.698;6.314;2023-03-23T16:33:11;7.50;;;2.47;;
57828;SDS011;43657;52.698;6.314;2023-03-23T16:35:37;7.85;;;2.60;;
57828;SDS011;43657;52.698;6.314;2023-03-23T16:38:03;5.40;;;1.92;;
57828;SDS011;43657;52.698;6.314;2023-03-23T16:40:29;3.97;;;1.67;;
57828;SDS011;43657;52.698;6.314;2023-03-23T16:42:55;4.43;;;1.65;;
57828;SDS011;43657;52.698;6.314;2023-03-23T16:45:21;3.63;;;1.40;;
57828;SDS011;43657;52.698;6.314;2023-03-23T16:47:48;5.07;;;1.30;;
57828;SDS011;43657;52.698;6.314;2023-03-23T16:50:15;4.45;;;1.42;;
57828;SDS011;43657;52.698;6.314;2023-03-23T16:52:42;5.30;;;1.73;;
57828;SDS011;43657;52.698;6.314;2023-03-23T16:55:09;3.60;;;1.40;;
57828;SDS011;43657;52.698;6.314;2023-03-23T16:57:36;5.05;;;2.13;;
57828;SDS011;43657;52.698;6.314;2023-03-23T17:00:04;5.30;;;1.95;;
57828;SDS011;43657;52.698;6.314;2023-03-23T17:02:31;4.10;;;1.80;;
57828;SDS011;43657;52.698;6.314;2023-03-23T17:04:57;5.15;;;1.73;;
57828;SDS011;43657;52.698;6.314;2023-03-23T17:07:23;3.95;;;1.77;;
57828;SDS011;43657;52.698;6.314;2023-03-23T17:09:49;6.32;;;1.90;;
57828;SDS011;43657;52.698;6.314;2023-03-23T17:12:14;5.40;;;1.80;;
57828;SDS011;43657;52.698;6.314;2023-03-23T17:14:40;6.13;;;2.05;;
57828;SDS011;43657;52.698;6.314;2023-03-23T17:17:06;5.00;;;1.75;;
57828;SDS011;43657;52.698;6.314;2023-03-23T17:19:31;6.00;;;2.28;;
57828;SDS011;43657;52.698;6.314;2023-03-23T17:21:57;6.45;;;2.10;;
57828;SDS011;43657;52.698;6.314;2023-03-23T17:24:23;5.28;;;2.08;;
57828;SDS011;43657;52.698;6.314;2023-03-23T17:26:49;6.13;;;2.00;;
57828;SDS011;43657;52.698;6.314;2023-03-23T17:29:14;7.93;;;2.63;;